Time;durP1;ratioP1;P1;durP2;ratioP2;P2;SDS_P1;SDS_P2;PMS_P1;PMS_P2;Temp;Humidity;BMP_temperature;BMP_pressure;BME280_temperature;BME280_humidity;BME280_pressure;Samples;Min_cycle;Max_cycle;Signal;HPM_P1;HPM_P2
2022/08/30 00:01:05;;;;;;;6.80;4.97;;;;;;;16.97;100.00;96479.44;5082662;28;20439;-75
2022/08/30 00:03:35;;;;;;;8.30;5.55;;;;;;;16.92;100.00;96479.19;5084328;28;20031;-75
2022/08/30 00:06:02;;;;;;;7.90;5.40;;;;;;;16.88;100.00;96477.94;5081909;28;20039;-75
2022/08/30 00:08:27;;;;;;;10.45;5.70;;;;;;;16.86;100.00;96483.41;5083794;28;20028;-75
2022/08/30 00:10:54;;;;;;;9.07;5.47;;;;;;;16.77;100.00;96479.28;5086438;28;20462;-75
2022/08/30 00:13:21;;;;;;;9.48;5.68;;;;;;;16.75;100.00;96477.81;5081254;28;20024;-75
2022/08/30 00:15:47;;;;;;;9.02;5.28;;;;;;;16.75;100.00;96477.81;5079566;28;20035;-75
2022/08/30 00:18:14;;;;;;;10.32;5.93;;;;;;;16.78;100.00;96474.78;5081479;28;20507;-75
2022/08/30 00:20:40;;;;;;;8.00;5.57;;;;;;;16.74;100.00;96487.59;5082240;28;20078;-75
2022/08/30 00:23:06;;;;;;;8.95;5.85;;;;;;;16.76;100.00;96484.75;5085803;28;20055;-75
2022/08/30 00:25:32;;;;;;;8.20;5.38;;;;;;;16.72;100.00;96481.63;5082706;28;20160;-75
2022/08/30 00:27:58;;;;;;;10.68;5.90;;;;;;;16.65;100.00;96486.88;5083517;28;20065;-75
2022/08/30 00:30:24;;;;;;;10.50;5.70;;;;;;;16.52;100.00;96486.78;5080142;28;21282;-75
2022/08/30 00:32:49;;;;;;;10.00;6.43;;;;;;;16.49;100.00;96482.66;5082777;28;20119;-75
2022/08/30 00:35:19;;;;;;;9.65;5.53;;;;;;;16.45;100.00;96483.25;5081952;28;20024;-75
2022/08/30 00:37:45;;;;;;;9.00;5.43;;;;;;;16.35;100.00;96482.72;5082773;28;20024;-75
2022/08/30 00:40:14;;;;;;;10.23;6.18;;;;;;;16.36;100.00;96471.91;5080102;28;20032;-75
2022/08/30 00:42:42;;;;;;;9.70;6.28;;;;;;;16.33;100.00;96477.63;5084210;28;20024;-75
2022/08/30 00:45:18;;;;;;;9.88;6.10;;;;;;;16.26;100.00;96476.72;5082208;28;20111;-75
2022/08/30 00:47:44;;;;;;;10.63;6.57;;;;;;;16.20;100.00;96473.00;5081998;28;20032;-75
2022/08/30 00:50:12;;;;;;;9.40;6.55;;;;;;;16.20;100.00;96472.19;5085609;28;20047;-75
2022/08/30 00:52:42;;;;;;;11.95;6.72;;;;;;;16.16;100.00;96474.41;5082807;28;20727;-75
2022/08/30 00:55:08;;;;;;;10.73;6.95;;;;;;;16.10;100.00;96472.50;5079521;28;20031;-74
2022/08/30 00:57:34;;;;;;;9.70;7.25;;;;;;;16.03;100.00;96472.41;5080685;28;20028;-75
2022/08/30 01:00:00;;;;;;;10.70;6.30;;;;;;;15.94;100.00;96472.72;5080422;28;20023;-75
2022/08/30 01:02:32;;;;;;;10.23;6.63;;;;;;;15.86;100.00;96467.50;5072548;28;20120;-75
2022/08/30 01:04:59;;;;;;;12.48;7.22;;;;;;;15.84;100.00;96478.31;5081024;28;20489;-75
2022/08/30 01:07:25;;;;;;;10.05;6.85;;;;;;;15.74;100.00;96480.44;5082526;28;20020;-75
2022/08/30 01:09:50;;;;;;;11.35;7.25;;;;;;;15.81;100.00;96472.56;5085649;28;20489;-75
2022/08/30 01:12:16;;;;;;;10.93;7.13;;;;;;;15.77;100.00;96483.53;5083638;28;20412;-75
2022/08/30 01:14:42;;;;;;;10.73;6.70;;;;;;;15.82;100.00;96464.41;5080986;28;20122;-75
2022/08/30 01:17:08;;;;;;;11.52;6.70;;;;;;;15.82;100.00;96469.72;5082357;28;20036;-74
2022/08/30 01:19:43;;;;;;;11.70;6.38;;;;;;;15.81;100.00;96472.56;5080950;28;20039;-75
2022/08/30 01:22:25;;;;;;;9.57;6.50;;;;;;;15.86;100.00;96475.47;5080736;28;20108;-75
2022/08/30 01:24:55;;;;;;;11.00;6.43;;;;;;;15.85;100.00;96479.13;5084435;28;20115;-75
2022/08/30 01:27:23;;;;;;;10.80;6.70;;;;;;;15.85;100.00;96476.47;5079665;28;20036;-75
2022/08/30 01:29:50;;;;;;;9.95;6.97;;;;;;;15.63;100.00;96478.22;5075606;28;20059;-75
2022/08/30 01:32:22;;;;;;;10.25;7.45;;;;;;;15.59;100.00;96483.06;5098241;28;20012;-75
2022/08/30 01:34:49;;;;;;;10.20;6.97;;;;;;;15.60;100.00;96482.06;5083630;28;21333;-75
2022/08/30 01:37:20;;;;;;;11.95;7.07;;;;;;;15.69;100.00;96477.50;5077418;28;20055;-75
2022/08/30 01:39:46;;;;;;;11.20;8.15;;;;;;;15.64;100.00;96487.81;5098554;28;20039;-75
2022/08/30 01:42:13;;;;;;;10.93;7.25;;;;;;;15.63;100.00;96480.88;5065890;28;20032;-75
2022/08/30 01:44:39;;;;;;;9.27;6.30;;;;;;;15.66;100.00;96483.13;5082857;28;20469;-75
2022/08/30 01:47:05;;;;;;;13.23;8.00;;;;;;;15.55;100.00;96482.59;5084803;28;20031;-75
2022/08/30 01:49:31;;;;;;;10.32;7.15;;;;;;;15.56;100.00;96478.16;5084232;28;20040;-75
2022/08/30 01:51:56;;;;;;;11.27;7.40;;;;;;;15.63;100.00;96481.69;5084876;28;20024;-75
2022/08/30 01:54:23;;;;;;;12.23;6.93;;;;;;;15.49;100.00;96479.88;5081025;28;20089;-75
2022/08/30 01:56:49;;;;;;;11.98;7.25;;;;;;;15.46;100.00;96485.53;5081940;28;20028;-75
2022/08/30 01:59:15;;;;;;;11.43;6.90;;;;;;;15.55;100.00;96495.03;5084852;28;20035;-75
2022/08/30 02:01:41;;;;;;;11.18;6.68;;;;;;;15.51;100.00;96485.81;5084820;28;20020;-75
2022/08/30 02:04:10;;;;;;;10.18;7.05;;;;;;;15.38;100.00;96488.28;5091209;28;20085;-74
2022/08/30 02:06:37;;;;;;;11.13;7.23;;;;;;;15.30;100.00;96489.22;5086391;28;20031;-74
2022/08/30 02:09:03;;;;;;;11.10;7.23;;;;;;;15.36;100.00;96484.97;5089133;28;20035;-76
2022/08/30 02:11:29;;;;;;;11.63;7.72;;;;;;;15.26;100.00;96487.94;5090230;28;20036;-75
2022/08/30 02:13:56;;;;;;;9.80;8.05;;;;;;;15.35;100.00;96486.00;5088697;28;20069;-75
2022/08/30 02:16:23;;;;;;;12.05;8.52;;;;;;;15.21;100.00;96485.81;5082937;28;20027;-75
2022/08/30 02:18:50;;;;;;;9.48;7.68;;;;;;;15.07;100.00;96487.44;5086736;28;20046;-75
2022/08/30 02:21:16;;;;;;;9.43;7.20;;;;;;;15.03;100.00;96490.66;5088204;28;20081;-75
2022/08/30 02:23:42;;;;;;;11.88;8.02;;;;;;;15.13;100.00;96485.91;5089222;28;20028;-74
2022/08/30 02:26:08;;;;;;;10.13;7.60;;;;;;;15.13;100.00;96485.09;5088244;28;20020;-75
2022/08/30 02:28:34;;;;;;;14.35;7.28;;;;;;;15.14;100.00;96486.72;5086184;28;20039;-75
2022/08/30 02:31:00;;;;;;;11.27;7.78;;;;;;;15.19;100.00;96490.50;5088489;28;20145;-75
2022/08/30 02:33:26;;;;;;;13.23;7.78;;;;;;;15.08;100.00;96488.25;5089488;28;20032;-74
2022/08/30 02:35:52;;;;;;;10.20;7.03;;;;;;;15.12;100.00;96486.88;5090336;28;20039;-74
2022/08/30 02:38:17;;;;;;;9.43;7.57;;;;;;;15.15;100.00;96486.53;5087522;28;20103;-75
2022/08/30 02:40:43;;;;;;;10.90;7.88;;;;;;;15.16;100.00;96487.38;5088372;28;20385;-74
2022/08/30 02:43:10;;;;;;;12.43;8.63;;;;;;;14.90;100.00;96490.44;5087950;28;20073;-74
2022/08/30 02:45:36;;;;;;;10.32;8.48;;;;;;;14.83;100.00;96485.88;5088838;28;20053;-74
2022/08/30 02:48:02;;;;;;;10.85;8.00;;;;;;;14.78;100.00;96479.44;5090110;28;20028;-75
2022/08/30 02:50:28;;;;;;;11.30;8.67;;;;;;;14.71;100.00;96481.16;5083141;28;20036;-75
2022/08/30 02:52:54;;;;;;;14.10;8.50;;;;;;;14.73;100.00;96480.00;5086584;28;20042;-75
2022/08/30 02:55:20;;;;;;;11.27;8.87;;;;;;;14.65;100.00;96476.59;5085374;28;20032;-75
2022/08/30 02:57:46;;;;;;;11.50;8.67;;;;;;;14.58;100.00;96476.47;5087474;28;20099;-75
2022/08/30 03:00:15;;;;;;;9.53;7.83;;;;;;;14.62;100.00;96472.50;5087195;28;20829;-75
2022/08/30 03:02:41;;;;;;;13.07;7.17;;;;;;;14.60;100.00;96466.53;5083440;28;20042;-75
2022/08/30 03:05:09;;;;;;;11.40;7.97;;;;;;;14.69;100.00;96454.88;5085802;28;20043;-75
2022/08/30 03:07:34;;;;;;;13.70;8.00;;;;;;;14.78;100.00;96460.91;5083711;28;20024;-74
2022/08/30 03:10:00;;;;;;;11.13;8.43;;;;;;;14.70;100.00;96468.94;5087094;28;20531;-75
2022/08/30 03:12:26;;;;;;;10.93;7.70;;;;;;;14.46;100.00;96467.31;5086323;28;20238;-75
2022/08/30 03:14:52;;;;;;;12.50;8.77;;;;;;;14.30;100.00;96471.69;5083470;28;20031;-75
2022/08/30 03:17:17;;;;;;;12.30;8.73;;;;;;;14.39;100.00;96473.28;5068208;28;20107;-75
2022/08/30 03:19:44;;;;;;;10.50;8.17;;;;;;;14.22;100.00;96477.06;5080447;28;20108;-75
2022/08/30 03:22:11;;;;;;;12.17;7.70;;;;;;;14.24;100.00;96480.34;5085717;28;20028;-75
2022/08/30 03:24:36;;;;;;;14.70;8.93;;;;;;;14.20;100.00;96472.94;5083612;28;20016;-74
2022/08/30 03:27:02;;;;;;;15.03;8.97;;;;;;;14.12;100.00;96471.19;5085918;28;20046;-75
2022/08/30 03:29:31;;;;;;;12.80;8.23;;;;;;;14.02;100.00;96467.94;5085570;28;20028;-75
2022/08/30 03:31:56;;;;;;;13.33;9.10;;;;;;;14.16;100.00;96467.19;5079631;28;20032;-75
2022/08/30 03:34:23;;;;;;;12.60;8.33;;;;;;;14.26;100.00;96473.06;5081783;28;20375;-75
2022/08/30 03:36:51;;;;;;;11.10;8.83;;;;;;;14.41;100.00;96472.28;5083207;28;20382;-74
2022/08/30 03:39:17;;;;;;;18.63;14.87;;;;;;;14.43;100.00;96472.94;5084203;28;20039;-74
2022/08/30 03:41:44;;;;;;;21.67;14.27;;;;;;;14.36;100.00;96473.66;5086715;28;20028;-74
2022/08/30 03:44:11;;;;;;;12.73;9.30;;;;;;;14.36;100.00;96476.28;5085826;28;20032;-75
2022/08/30 03:46:37;;;;;;;10.03;7.90;;;;;;;14.45;100.00;96476.22;5061753;28;20139;-75
2022/08/30 03:49:03;;;;;;;12.03;8.07;;;;;;;14.52;100.00;96471.88;5082404;28;20026;-75
2022/08/30 03:51:29;;;;;;;11.43;8.57;;;;;;;14.52;100.00;96464.78;5083842;28;20036;-74
2022/08/30 03:53:55;;;;;;;10.20;7.43;;;;;;;14.50;100.00;96458.00;5064106;28;20093;-75
2022/08/30 03:56:21;;;;;;;11.70;8.90;;;;;;;14.25;100.00;96466.13;5081886;28;20028;-74
2022/08/30 03:58:47;;;;;;;10.70;8.70;;;;;;;14.06;100.00;96466.59;5086805;28;20032;-75
2022/08/30 04:01:12;;;;;;;11.53;8.80;;;;;;;13.98;100.00;96474.56;5080308;28;20042;-75
2022/08/30 04:03:38;;;;;;;11.93;9.23;;;;;;;13.95;100.00;96480.19;5085247;28;20036;-75
2022/08/30 04:06:04;;;;;;;16.10;12.93;;;;;;;13.94;100.00;96478.56;5085330;28;20053;-75
2022/08/30 04:08:30;;;;;;;16.80;12.83;;;;;;;14.08;100.00;96476.00;5085285;28;20031;-75
2022/08/30 04:10:55;;;;;;;16.13;10.97;;;;;;;14.06;100.00;96477.16;5083708;28;20081;-75
2022/08/30 04:13:23;;;;;;;12.90;10.23;;;;;;;14.07;100.00;96474.34;5081317;28;20633;-74
2022/08/30 04:15:49;;;;;;;12.57;8.90;;;;;;;14.09;100.00;96479.47;5088501;28;20063;-75
2022/08/30 04:18:15;;;;;;;10.80;8.20;;;;;;;14.12;100.00;96481.75;5085521;28;20027;-74
2022/08/30 04:20:41;;;;;;;12.10;8.67;;;;;;;14.13;100.00;96486.88;5081044;28;20074;-75
2022/08/30 04:23:08;;;;;;;13.80;9.07;;;;;;;14.17;100.00;96484.69;5084533;28;20085;-74
2022/08/30 04:25:35;;;;;;;16.13;9.60;;;;;;;14.08;100.00;96481.28;5079423;28;20074;-75
2022/08/30 04:28:02;;;;;;;12.90;8.97;;;;;;;14.06;100.00;96477.16;5083140;28;20032;-74
2022/08/30 04:30:28;;;;;;;14.90;9.67;;;;;;;14.15;100.00;96478.75;5082710;28;20032;-74
2022/08/30 04:32:54;;;;;;;12.40;9.17;;;;;;;14.14;100.00;96483.22;5083420;28;20024;-75
2022/08/30 04:35:20;;;;;;;13.07;8.43;;;;;;;14.19;100.00;96477.41;5083412;28;20028;-75
2022/08/30 04:37:46;;;;;;;12.73;9.00;;;;;;;14.16;100.00;96480.41;5082291;28;20024;-75
2022/08/30 04:40:12;;;;;;;14.63;8.60;;;;;;;14.21;100.00;96478.03;5086537;28;20055;-75
2022/08/30 04:42:40;;;;;;;11.63;8.67;;;;;;;14.17;100.00;96475.94;5086008;28;20032;-75
2022/08/30 04:45:11;;;;;;;10.20;8.27;;;;;;;14.30;100.00;96489.41;5079114;28;20051;-75
2022/08/30 04:47:38;;;;;;;13.20;9.13;;;;;;;14.26;100.00;96494.22;5077996;28;20036;-74
2022/08/30 04:50:06;;;;;;;13.93;8.67;;;;;;;14.27;100.00;96495.03;5083139;28;20133;-75
2022/08/30 04:52:31;;;;;;;11.67;8.07;;;;;;;14.33;100.00;96495.16;5082496;28;20119;-74
2022/08/30 04:54:58;;;;;;;11.73;8.13;;;;;;;14.21;100.00;96501.03;5083356;28;20058;-75
2022/08/30 04:57:25;;;;;;;13.63;8.70;;;;;;;14.10;100.00;96505.72;5084502;28;20046;-75
2022/08/30 04:59:51;;;;;;;11.87;8.57;;;;;;;14.21;100.00;96509.78;5064673;28;20031;-75
2022/08/30 05:02:17;;;;;;;10.33;7.80;;;;;;;14.13;100.00;96510.66;5079844;28;20024;-75
2022/08/30 05:05:38;;;;;;;11.77;7.90;;;;;;;14.08;100.00;96506.88;5083339;28;20096;-74
2022/08/30 05:07:30;;;;;;;12.80;8.40;;;;;;;14.04;100.00;96513.53;5084373;28;20030;-74
2022/08/30 05:09:56;;;;;;;12.07;7.93;;;;;;;14.04;100.00;96513.53;5085005;28;20637;-75
2022/08/30 05:12:22;;;;;;;11.10;7.80;;;;;;;14.06;100.00;96515.00;5084141;28;20024;-75
2022/08/30 05:14:48;;;;;;;11.37;7.63;;;;;;;14.09;100.00;96519.13;5082899;28;20143;-75
2022/08/30 05:17:14;;;;;;;10.90;8.77;;;;;;;14.23;100.00;96510.44;5081763;28;20565;-75
2022/08/30 05:19:40;;;;;;;10.43;7.80;;;;;;;14.42;100.00;96513.63;5084773;28;20031;-75
2022/08/30 05:22:06;;;;;;;13.70;8.83;;;;;;;14.58;100.00;96510.88;5084386;28;20035;-75
2022/08/30 05:24:32;;;;;;;11.97;7.80;;;;;;;14.74;100.00;96510.75;5084244;28;20040;-74
2022/08/30 05:26:58;;;;;;;12.57;7.87;;;;;;;14.83;100.00;96522.94;5082653;28;20148;-74
2022/08/30 05:29:23;;;;;;;12.07;7.53;;;;;;;14.89;100.00;96513.47;5086816;28;20069;-75
2022/08/30 05:31:49;;;;;;;13.10;7.60;;;;;;;15.13;100.00;96515.03;5085953;28;20051;-75
2022/08/30 05:34:16;;;;;;;14.30;8.60;;;;;;;15.19;100.00;96514.34;5086702;28;20456;-75
2022/08/30 05:36:41;;;;;;;10.43;7.93;;;;;;;15.09;100.00;96516.41;5080256;28;20032;-75
2022/08/30 05:39:09;;;;;;;15.03;8.93;;;;;;;15.13;100.00;96523.00;5090428;28;20039;-74
2022/08/30 05:41:35;;;;;;;10.40;7.43;;;;;;;15.27;100.00;96508.13;5081744;28;20111;-75
2022/08/30 05:44:03;;;;;;;13.03;8.70;;;;;;;15.33;100.00;96512.69;5081398;28;20023;-75
2022/08/30 05:46:32;;;;;;;16.53;8.63;;;;;;;15.24;100.00;96516.44;5089597;28;20157;-74
2022/08/30 05:49:00;;;;;;;16.90;8.53;;;;;;;15.43;100.00;96515.06;5077307;28;20032;-75
2022/08/30 05:51:28;;;;;;;13.50;8.63;;;;;;;15.78;100.00;96514.34;5078089;28;20033;-75
2022/08/30 05:53:54;;;;;;;12.90;8.27;;;;;;;16.29;100.00;96512.69;5081326;28;20545;-75
2022/08/30 05:56:23;;;;;;;13.80;8.80;;;;;;;16.52;100.00;96518.63;5088641;28;20047;-77
2022/08/30 05:58:49;;;;;;;13.68;8.77;;;;;;;17.09;100.00;96512.41;5078125;28;20119;-75
2022/08/30 06:01:26;;;;;;;13.32;7.55;;;;;;;17.16;100.00;96515.13;5089820;28;20013;-75
2022/08/30 06:03:53;;;;;;;13.63;7.78;;;;;;;17.39;100.00;96509.56;5090102;28;20103;-75
2022/08/30 06:06:19;;;;;;;11.85;7.90;;;;;;;17.70;100.00;96511.75;5087757;28;20024;-75
2022/08/30 06:08:47;;;;;;;10.15;7.30;;;;;;;17.84;100.00;96518.00;5083163;28;20062;-75
2022/08/30 06:11:18;;;;;;;11.25;7.60;;;;;;;17.57;100.00;96512.53;5089925;28;20435;-75
2022/08/30 06:13:44;;;;;;;8.88;6.82;;;;;;;18.09;100.00;96513.00;5086430;28;20112;-75
2022/08/30 06:16:12;;;;;;;11.95;7.95;;;;;;;17.86;100.00;96516.78;5087017;28;20039;-75
2022/08/30 06:18:37;;;;;;;10.93;7.55;;;;;;;18.20;100.00;96508.94;5079561;28;20028;-75
2022/08/30 06:21:04;;;;;;;9.88;6.78;;;;;;;17.82;100.00;96502.25;5088671;28;20500;-75
2022/08/30 06:23:29;;;;;;;10.50;7.53;;;;;;;18.76;100.00;96501.47;5089922;28;20030;-75
2022/08/30 06:25:56;;;;;;;10.02;6.50;;;;;;;19.40;100.00;96497.34;5087456;28;20040;-75
2022/08/30 06:28:22;;;;;;;9.60;6.65;;;;;;;19.43;100.00;96494.25;5086421;28;20031;-75
2022/08/30 06:30:47;;;;;;;8.68;6.10;;;;;;;19.98;100.00;96502.72;5086531;28;20042;-75
2022/08/30 06:33:13;;;;;;;11.20;7.90;;;;;;;19.65;100.00;96499.34;5089632;28;20067;-75
2022/08/30 06:35:39;;;;;;;12.27;6.63;;;;;;;19.99;100.00;96496.38;5080136;28;20119;-75
2022/08/30 06:38:04;;;;;;;18.95;7.10;;;;;;;19.63;100.00;96486.25;5087320;28;20506;-75
2022/08/30 06:40:30;;;;;;;13.20;7.10;;;;;;;20.13;100.00;96493.66;5089742;28;20024;-75
2022/08/30 06:42:56;;;;;;;9.57;6.95;;;;;;;20.38;100.00;96488.38;5087751;28;20151;-75
2022/08/30 06:45:21;;;;;;;14.13;7.25;;;;;;;20.59;100.00;96495.25;5087344;28;20016;-75
2022/08/30 06:47:47;;;;;;;8.60;6.53;;;;;;;20.98;100.00;96490.66;5088514;28;20035;-75
2022/08/30 06:50:15;;;;;;;8.02;6.07;;;;;;;20.79;100.00;96497.78;5088566;28;20031;-75
2022/08/30 06:52:42;;;;;;;9.18;6.45;;;;;;;20.73;100.00;96499.47;5088801;28;20043;-75
2022/08/30 06:55:13;;;;;;;8.80;6.10;;;;;;;21.49;100.00;96494.94;5082479;28;20048;-75
2022/08/30 06:57:39;;;;;;;8.50;5.68;;;;;;;21.98;100.00;96491.28;5085706;28;20162;-75
2022/08/30 07:00:08;;;;;;;9.75;6.13;;;;;;;21.25;100.00;96494.72;5088838;28;20106;-75
2022/08/30 07:02:36;;;;;;;12.15;6.20;;;;;;;22.14;100.00;96497.91;5081225;28;20031;-75
2022/08/30 07:05:03;;;;;;;11.82;5.80;;;;;;;22.38;100.00;96495.34;5089289;28;20047;-75
2022/08/30 07:07:29;;;;;;;8.52;5.65;;;;;;;23.01;99.56;96486.81;5088061;28;20024;-75
2022/08/30 07:09:54;;;;;;;9.02;5.75;;;;;;;22.80;99.87;96494.31;5087520;28;20547;-75
2022/08/30 07:12:21;;;;;;;9.93;6.18;;;;;;;22.74;100.00;96489.88;5066668;28;20046;-75
2022/08/30 07:14:46;;;;;;;9.55;6.07;;;;;;;22.66;100.00;96484.81;5078439;28;20032;-75
2022/08/30 07:19:57;;;;;;;8.48;5.38;;;;;;;23.25;98.33;96477.72;5088389;28;20028;-75
2022/08/30 07:22:23;;;;;;;8.80;5.65;;;;;;;23.14;97.68;96477.69;5081590;28;20036;-75
2022/08/30 07:24:49;;;;;;;8.55;5.63;;;;;;;23.09;99.33;96472.22;5087744;28;20024;-75
2022/08/30 07:27:14;;;;;;;9.25;5.97;;;;;;;23.68;95.61;96476.53;5087594;28;20016;-75
2022/08/30 07:29:41;;;;;;;9.55;5.72;;;;;;;23.53;96.58;96476.16;5088283;28;20032;-75
2022/08/30 07:32:07;;;;;;;8.30;5.72;;;;;;;23.10;99.37;96463.94;5083849;28;20028;-75
2022/08/30 07:34:33;;;;;;;10.15;5.32;;;;;;;24.40;93.73;96469.88;5087008;28;20120;-75
2022/08/30 07:36:58;;;;;;;8.95;5.80;;;;;;;24.89;87.34;96471.03;5086607;28;20084;-75
2022/08/30 07:39:24;;;;;;;8.70;5.78;;;;;;;25.57;84.68;96460.22;5088320;28;20028;-75
2022/08/30 07:41:49;;;;;;;9.68;5.25;;;;;;;24.93;86.87;96471.38;5086969;28;20054;-75
2022/08/30 07:44:16;;;;;;;8.02;4.70;;;;;;;25.73;86.17;96466.66;5086497;28;20028;-75
2022/08/30 07:46:42;;;;;;;13.13;6.35;;;;;;;25.91;85.19;96471.75;5067464;28;20123;-76
2022/08/30 07:49:10;;;;;;;8.43;4.63;;;;;;;25.91;82.70;96476.31;5087203;28;20113;-76
2022/08/30 07:51:35;;;;;;;9.93;5.70;;;;;;;25.93;80.52;96485.78;5086769;28;20039;-76
2022/08/30 07:54:01;;;;;;;8.82;6.22;;;;;;;26.76;77.52;96481.06;5081152;28;20032;-76
2022/08/30 07:56:27;;;;;;;11.75;5.82;;;;;;;26.73;77.06;96478.06;5075394;28;20115;-76
2022/08/30 07:58:53;;;;;;;13.73;6.90;;;;;;;26.50;79.68;96482.69;5085493;28;20024;-76
2022/08/30 08:01:21;;;;;;;9.48;6.40;;;;;;;26.48;80.76;96482.13;5088051;28;20030;-76
2022/08/30 08:03:49;;;;;;;9.23;5.70;;;;;;;26.66;75.08;96477.44;5087924;28;20389;-76
2022/08/30 08:06:16;;;;;;;8.63;5.70;;;;;;;27.42;69.26;96480.75;5084166;28;20066;-76
2022/08/30 08:08:44;;;;;;;8.10;4.93;;;;;;;27.99;64.96;96475.69;5088144;28;20046;-75
2022/08/30 08:11:14;;;;;;;8.00;5.10;;;;;;;27.01;76.92;96482.34;5086585;28;20496;-76
2022/08/30 08:13:41;;;;;;;7.70;5.28;;;;;;;27.83;68.84;96485.63;5087487;28;20036;-76
2022/08/30 08:16:07;;;;;;;9.07;6.13;;;;;;;27.00;67.97;96492.31;5086932;28;20107;-76
2022/08/30 08:18:33;;;;;;;6.95;4.75;;;;;;;27.81;62.19;96490.50;5074004;28;20032;-76
2022/08/30 08:20:59;;;;;;;8.40;5.07;;;;;;;27.24;61.63;96486.59;5088017;28;20036;-76
2022/08/30 08:23:26;;;;;;;8.25;5.38;;;;;;;28.32;55.93;96493.38;5087411;28;20389;-76
2022/08/30 08:25:51;;;;;;;7.45;4.82;;;;;;;27.43;58.65;96490.50;5086874;28;20504;-76
2022/08/30 08:28:18;;;;;;;8.25;5.38;;;;;;;28.17;56.38;96491.47;5084404;28;20036;-76
2022/08/30 08:30:44;;;;;;;7.75;4.63;;;;;;;29.48;53.55;96486.50;5086840;28;20035;-75
2022/08/30 08:33:12;;;;;;;8.88;5.18;;;;;;;28.62;55.89;96492.69;5086500;28;20550;-76
2022/08/30 08:35:38;;;;;;;8.82;4.85;;;;;;;29.26;51.00;96492.19;5081382;28;20117;-76
2022/08/30 08:38:03;;;;;;;6.25;4.60;;;;;;;28.85;54.17;96491.38;5066699;28;20521;-76
2022/08/30 08:40:38;;;;;;;8.63;5.00;;;;;;;29.06;51.95;96494.91;5081293;28;20076;-75
2022/08/30 08:43:13;;;;;;;8.65;4.65;;;;;;;29.54;50.97;96488.13;5080206;28;20077;-76
2022/08/30 08:46:03;;;;;;;8.30;4.70;;;;;;;29.22;52.21;96491.13;5086620;28;20043;-76
2022/08/30 08:48:37;;;;;;;7.93;5.20;;;;;;;28.24;53.88;96502.84;5077597;28;20077;-76
2022/08/30 08:53:59;;;;;;;7.35;4.38;;;;;;;28.59;50.94;96498.63;5077843;28;20435;-76
2022/08/30 08:56:25;;;;;;;10.68;5.20;;;;;;;29.44;50.50;96492.72;5086035;28;20028;-76
2022/08/30 08:58:54;;;;;;;7.85;5.05;;;;;;;28.98;49.97;96495.44;5086133;28;20481;-76
2022/08/30 09:01:26;;;;;;;6.60;4.22;;;;;;;29.45;48.57;96487.03;5088141;28;20564;-76
2022/08/30 09:03:53;;;;;;;6.75;4.35;;;;;;;29.75;48.40;96488.09;5088183;28;20071;-76
2022/08/30 09:06:33;;;;;;;5.80;4.20;;;;;;;29.81;47.70;96487.81;5071113;28;20048;-75
2022/08/30 09:08:59;;;;;;;10.95;5.60;;;;;;;29.65;45.70;96486.22;5084097;28;20028;-76
2022/08/30 09:11:31;;;;;;;7.70;4.50;;;;;;;28.76;48.99;96488.38;5090480;28;20028;-76
2022/08/30 09:13:58;;;;;;;7.88;4.03;;;;;;;29.41;47.34;96487.84;5091978;28;20027;-76
2022/08/30 09:16:56;;;;;;;7.90;5.07;;;;;;;29.67;47.67;96481.31;5091021;28;20024;-76
2022/08/30 09:19:36;;;;;;;7.32;4.45;;;;;;;29.28;46.30;96479.22;5081092;28;20036;-76
2022/08/30 09:22:20;;;;;;;7.13;4.50;;;;;;;30.67;41.56;96468.69;5085647;28;20355;-76
2022/08/30 09:24:52;;;;;;;6.53;4.35;;;;;;;30.81;42.12;96466.16;5086370;28;20535;-76
2022/08/30 09:27:19;;;;;;;8.18;5.07;;;;;;;31.02;41.58;96462.22;5090411;28;20032;-76
2022/08/30 09:29:53;;;;;;;6.72;4.40;;;;;;;31.21;43.21;96457.69;5090594;28;20024;-76
2022/08/30 09:32:38;;;;;;;8.68;4.35;;;;;;;30.79;42.72;96454.81;5090749;28;20035;-76
2022/08/30 09:35:08;;;;;;;6.03;4.53;;;;;;;30.23;45.56;96462.16;5069206;28;20439;-76
2022/08/30 09:37:44;;;;;;;6.20;4.53;;;;;;;30.85;42.02;96453.63;5082001;28;20673;-76
2022/08/30 09:40:21;;;;;;;9.05;4.65;;;;;;;30.73;41.90;96454.78;5091793;28;20032;-75
2022/08/30 09:43:16;;;;;;;7.10;5.13;;;;;;;29.52;44.86;96448.81;5089199;28;20036;-76
2022/08/30 09:46:09;;;;;;;6.22;5.20;;;;;;;31.02;41.89;96451.34;5087879;28;20047;-76
2022/08/30 09:48:42;;;;;;;6.30;4.50;;;;;;;30.34;42.71;96452.06;5089230;28;20047;-75
2022/08/30 09:51:12;;;;;;;5.65;4.35;;;;;;;31.11;40.17;96449.63;5090916;28;20024;-76
2022/08/30 09:54:02;;;;;;;7.78;5.25;;;;;;;29.26;44.36;96454.28;5085425;28;20143;-76
2022/08/30 09:56:33;;;;;;;6.15;4.53;;;;;;;31.03;41.25;96447.53;5088263;28;20040;-76
2022/08/30 09:59:46;;;;;;;7.85;5.03;;;;;;;31.93;39.55;96444.19;5089367;28;20059;-76
2022/08/30 10:02:24;;;;;;;7.17;4.40;;;;;;;32.90;37.00;96442.03;5080324;28;20646;-77
2022/08/30 10:05:16;;;;;;;8.50;4.28;;;;;;;30.32;42.58;96437.16;5092523;28;20469;-77
2022/08/30 10:08:24;;;;;;;7.38;4.30;;;;;;;29.76;44.63;96436.31;5071075;28;20047;-77
2022/08/30 10:11:24;;;;;;;6.20;4.50;;;;;;;29.93;44.78;96435.97;5088152;28;20044;-76
2022/08/30 10:14:23;;;;;;;6.05;4.22;;;;;;;30.44;41.33;96432.19;5089193;28;20075;-77
2022/08/30 10:17:00;;;;;;;7.28;4.45;;;;;;;29.16;45.27;96427.22;5088031;28;20030;-77
2022/08/30 10:19:41;;;;;;;6.22;3.78;;;;;;;28.57;47.10;96425.84;5085236;28;20061;-77
2022/08/30 10:22:22;;;;;;;8.43;4.13;;;;;;;28.87;47.60;96429.63;5089204;28;20027;-77
2022/08/30 10:24:52;;;;;;;6.38;4.80;;;;;;;30.07;43.93;96425.31;5090215;28;20555;-76
2022/08/30 10:27:27;;;;;;;6.15;4.10;;;;;;;29.86;43.84;96421.09;5088827;28;20035;-77
2022/08/30 10:30:13;;;;;;;8.00;4.50;;;;;;;30.46;43.69;96421.88;5088264;28;20489;-76
2022/08/30 10:33:04;;;;;;;7.82;4.88;;;;;;;30.59;42.75;96415.00;5100403;28;20178;-76
2022/08/30 10:35:38;;;;;;;7.70;5.05;;;;;;;29.92;43.88;96417.28;5086541;28;20028;-76
2022/08/30 10:38:22;;;;;;;7.00;4.88;;;;;;;30.57;40.55;96407.13;5082377;28;20165;-76
2022/08/30 10:41:15;;;;;;;8.85;4.80;;;;;;;31.18;39.05;96403.91;5089583;28;20373;-77
2022/08/30 10:44:02;;;;;;;7.88;4.60;;;;;;;31.70;39.83;96399.56;5087843;28;20401;-75
2022/08/30 10:46:46;;;;;;;6.05;4.47;;;;;;;30.81;41.18;96401.81;5082953;28;20024;-75
2022/08/30 10:49:18;;;;;;;7.35;4.43;;;;;;;31.07;38.67;96399.69;5081579;28;20032;-75
2022/08/30 10:52:18;;;;;;;5.68;3.95;;;;;;;32.06;37.20;96404.59;5087651;28;20040;-75
2022/08/30 10:54:49;;;;;;;7.97;4.45;;;;;;;31.28;40.05;96394.03;5086627;28;20093;-75
2022/08/30 10:57:16;;;;;;;7.43;4.32;;;;;;;31.05;40.05;96401.06;5088731;28;20032;-76
2022/08/30 10:59:47;;;;;;;7.28;4.75;;;;;;;30.97;40.83;96400.59;5088971;28;20043;-75
2022/08/30 11:02:34;;;;;;;7.05;4.53;;;;;;;30.29;39.81;96404.06;5087733;28;20526;-76
2022/08/30 11:05:30;;;;;;;7.03;4.20;;;;;;;31.75;37.36;96395.16;5079763;28;20024;-75
2022/08/30 11:08:17;;;;;;;6.75;4.05;;;;;;;32.14;36.88;96394.97;5070562;28;20028;-75
2022/08/30 11:11:08;;;;;;;6.38;4.40;;;;;;;31.41;39.00;96398.81;5087315;28;20381;-75
2022/08/30 11:13:38;;;;;;;9.30;5.10;;;;;;;31.49;38.99;96400.09;5088880;28;20089;-75
2022/08/30 11:16:17;;;;;;;7.15;4.30;;;;;;;32.46;36.73;96396.97;5087100;28;20505;-76
2022/08/30 11:18:48;;;;;;;6.47;4.03;;;;;;;33.53;35.78;96394.34;5068219;28;20062;-76
2022/08/30 11:21:16;;;;;;;6.22;4.43;;;;;;;31.84;36.78;96393.44;5067898;28;20097;-76
2022/08/30 11:24:16;;;;;;;6.15;4.53;;;;;;;30.23;39.61;96402.47;5087818;28;20059;-77
2022/08/30 11:26:48;;;;;;;7.45;4.82;;;;;;;31.36;38.48;96404.34;5086257;28;20069;-76
2022/08/30 11:29:44;;;;;;;7.95;4.05;;;;;;;31.34;37.38;96404.59;5085661;28;20036;-75
2022/08/30 11:32:14;;;;;;;10.23;4.53;;;;;;;31.92;37.62;96403.69;5084044;28;20024;-76
2022/08/30 11:34:46;;;;;;;6.10;4.28;;;;;;;31.45;37.42;96397.94;5085793;28;20028;-75
2022/08/30 11:37:37;;;;;;;11.35;4.25;;;;;;;31.98;36.71;96402.50;5085619;28;20078;-76
2022/08/30 11:40:15;;;;;;;5.88;4.32;;;;;;;32.90;34.58;96395.75;5087422;28;20053;-76
2022/08/30 11:42:47;;;;;;;6.28;3.72;;;;;;;32.54;34.04;96392.78;5088137;28;20035;-75